Accueil
METAR-TAF:

METAR-TAF

Aéroports :

Pago Pago, Îles mineures éloignées des États-Unis

Aéroport de Pago Pago

latitude: 14-20S, longitude: 170-43W, altitude: 3 m

Observation

Le bulletin a été fait il y a 39 minutes, à 05:50 UTC
Vent calme
Température 28°C
Humidité 84%
Pression 1007 hPa
Visibilité: 16.1 km
Quelques nuages à une hauteur de 1900 ft
Nuages épars à une hauteur de 10000 ft

METAR: NSTU 120550Z 00000KT 10SM FEW019 SCT100 28/25 A2975 RMK SLP075 60003 8/170 T02810251 10298 20273 52010

Heure: 19:29 (06:29 UTC)

Prévision

Le bulletin a été fait il y a 57 minutes, à 05:32 UTC
Prévision valable du 12 à 06 UTC au 13 à 06 UTC
Vent 5 kt de direction variable
Visibilité: 10 km
Nuages épars à une hauteur de 2000 ft
Nuages fragmentés à une hauteur de 4000 ft
Nuages fragmentés à une hauteur de 10000 ft
averses à proximité

TAF: NSTU 120532Z 1206/1306 VRB05KT P6SM VCSH SCT020 BKN040 BKN100

Observations et prévisions météorologiques de plus de 4000 aéroports (messages METAR et TAF).

Les stations disponibles sont représentées par des disques jaunes et rouges sur la carte.

Passer la souris dessus pour voir le nom de la station.

Cliquer dessus pour voir les observations et prévisions météorologiques.

Pour changer de carte: cliquez sur les boutons verts avec une croix noire pour zoomer, sur le bouton vert avec un tiret pour effectuer un zoom arrière, ou sur les flèches vertes pour les cartes adjacentes.


METAR-TAF: